Time;durP1;ratioP1;P1;durP2;ratioP2;P2;SDS_P1;SDS_P2;PMS_P1;PMS_P2;Temp;Humidity;BMP_temperature;BMP_pressure;BME280_temperature;BME280_humidity;BME280_pressure;Samples;Min_cycle;Max_cycle;Signal;HPM_P1;HPM_P2
2023/05/24 00:00:40;;;;;;;11.73;4.17;;;15.10;1.00;;;;;;5003493;28;20297;-72
2023/05/24 00:03:06;;;;;;;8.67;4.13;;;15.00;1.00;;;;;;5007490;28;20257;-72
2023/05/24 00:05:32;;;;;;;8.03;4.30;;;14.90;1.00;;;;;;5006200;28;20442;-73
2023/05/24 00:07:58;;;;;;;9.17;4.60;;;14.90;1.00;;;;;;5006701;28;20728;-72
2023/05/24 00:10:23;;;;;;;5.60;4.20;;;14.80;1.00;;;;;;5006810;28;20225;-73
2023/05/24 00:12:49;;;;;;;8.60;4.30;;;14.80;1.00;;;;;;5008528;28;20186;-73
2023/05/24 00:15:15;;;;;;;8.00;4.43;;;14.70;1.00;;;;;;5006418;28;20226;-73
2023/05/24 00:17:41;;;;;;;8.63;4.33;;;14.70;1.00;;;;;;5004743;28;20225;-73
2023/05/24 00:20:11;;;;;;;8.97;4.57;;;14.70;1.00;;;;;;5004474;28;20214;-73
2023/05/24 00:22:40;;;;;;;9.97;4.90;;;14.60;1.00;;;;;;5005987;28;20525;-74
2023/05/24 00:25:06;;;;;;;7.83;4.60;;;14.60;1.00;;;;;;5006081;28;20441;-73
2023/05/24 00:27:32;;;;;;;7.77;4.20;;;14.60;1.00;;;;;;5005870;28;20461;-74
2023/05/24 00:29:58;;;;;;;9.57;5.17;;;;;;;;;;5006533;28;20515;-73
2023/05/24 00:32:23;;;;;;;11.63;5.00;;;14.60;1.00;;;;;;5006658;28;20246;-73
2023/05/24 00:34:49;;;;;;;10.03;5.00;;;14.60;1.00;;;;;;5007062;28;20193;-73
2023/05/24 00:37:14;;;;;;;10.13;4.30;;;14.50;1.00;;;;;;5005882;28;20565;-73
2023/05/24 00:39:40;;;;;;;12.23;4.40;;;14.60;1.00;;;;;;5005548;28;20206;-73
2023/05/24 00:42:06;;;;;;;13.60;4.40;;;14.60;1.00;;;;;;5006503;28;20179;-74
2023/05/24 00:44:31;;;;;;;9.60;4.63;;;14.50;1.00;;;;;;5006719;28;20195;-74
2023/05/24 00:46:57;;;;;;;6.60;4.43;;;14.60;1.00;;;;;;5003642;28;20183;-74
2023/05/24 00:49:23;;;;;;;8.77;4.40;;;14.60;1.00;;;;;;5007711;28;20218;-72
2023/05/24 00:51:50;;;;;;;8.50;4.20;;;14.60;1.00;;;;;;5006261;28;20685;-73
2023/05/24 00:54:16;;;;;;;10.60;4.67;;;14.60;1.00;;;;;;5006094;28;20179;-72
2023/05/24 00:56:42;;;;;;;8.37;4.23;;;14.60;1.00;;;;;;5007535;28;20679;-73
2023/05/24 00:59:08;;;;;;;11.13;4.30;;;14.60;1.00;;;;;;5004210;28;20329;-73
2023/05/24 01:01:34;;;;;;;10.33;4.37;;;14.60;1.00;;;;;;4997362;28;21003;-74
2023/05/24 01:03:59;;;;;;;13.77;4.67;;;14.60;1.00;;;;;;5005394;28;20191;-73
2023/05/24 01:06:26;;;;;;;11.30;4.27;;;14.60;1.00;;;;;;5006101;28;20260;-73
2023/05/24 01:09:12;;;;;;;10.03;4.23;;;14.50;1.00;;;;;;5001111;28;20221;-73
2023/05/24 01:12:02;;;;;;;11.13;4.37;;;14.50;1.00;;;;;;4999551;28;20433;-73
2023/05/24 01:14:55;;;;;;;9.70;4.23;;;14.40;1.00;;;;;;5006548;28;20783;-73
2023/05/24 01:17:52;;;;;;;9.13;4.10;;;14.40;1.00;;;;;;5006292;28;20524;-73
2023/05/24 01:20:21;;;;;;;12.70;4.50;;;14.40;1.00;;;;;;5005304;28;20995;-73
2023/05/24 01:23:23;;;;;;;10.30;4.33;;;14.30;1.00;;;;;;5007193;28;20434;-73
2023/05/24 01:26:04;;;;;;;13.80;4.50;;;14.30;1.00;;;;;;5005059;28;20455;-73
2023/05/24 01:28:33;;;;;;;8.03;4.13;;;14.30;1.00;;;;;;5007795;28;20464;-73
2023/05/24 01:30:59;;;;;;;14.77;4.40;;;14.30;1.00;;;;;;5009172;28;20440;-73
2023/05/24 01:33:25;;;;;;;7.60;4.43;;;14.80;1.00;;;;;;5006080;28;20439;-73
2023/05/24 01:35:50;;;;;;;11.60;4.30;;;14.30;1.00;;;;;;5009236;28;21039;-73
2023/05/24 01:38:16;;;;;;;8.73;4.50;;;14.30;1.00;;;;;;5010118;28;20186;-73
2023/05/24 01:40:42;;;;;;;8.77;4.33;;;14.20;1.00;;;;;;5009460;28;20190;-73
2023/05/24 01:43:28;;;;;;;11.70;4.80;;;14.30;1.00;;;;;;5009118;28;20261;-73
2023/05/24 01:46:33;;;;;;;9.47;4.33;;;14.30;1.00;;;;;;5009992;28;20653;-73
2023/05/24 01:49:21;;;;;;;11.23;4.57;;;14.40;1.00;;;;;;5005551;28;20468;-74
2023/05/24 01:51:58;;;;;;;9.13;4.20;;;14.20;1.00;;;;;;5009288;28;20976;-74
2023/05/24 01:54:27;;;;;;;8.23;4.70;;;14.30;1.00;;;;;;5010022;28;20951;-73
2023/05/24 01:56:54;;;;;;;7.07;4.17;;;14.30;1.00;;;;;;5009546;28;20495;-73
2023/05/24 01:59:22;;;;;;;14.27;4.77;;;14.40;1.00;;;;;;5008310;28;20472;-73
2023/05/24 02:01:48;;;;;;;11.80;4.20;;;14.40;1.00;;;;;;5008581;28;20441;-73
2023/05/24 02:04:15;;;;;;;9.50;4.27;;;14.40;1.00;;;;;;5009626;28;20433;-73
2023/05/24 02:06:40;;;;;;;10.30;3.90;;;14.40;1.00;;;;;;5008508;28;20461;-73
2023/05/24 02:09:06;;;;;;;14.10;4.53;;;16.00;1.00;;;;;;5007917;28;20469;-73
2023/05/24 02:11:31;;;;;;;12.10;4.73;;;14.40;1.00;;;;;;5006421;28;20776;-74
2023/05/24 02:13:57;;;;;;;11.70;4.33;;;14.40;1.00;;;;;;5008904;28;20553;-73
2023/05/24 02:16:25;;;;;;;8.90;4.07;;;14.30;1.00;;;;;;5007512;28;21074;-73
2023/05/24 02:18:51;;;;;;;9.17;4.53;;;14.30;1.00;;;;;;5008476;28;20217;-73
2023/05/24 02:21:17;;;;;;;9.27;4.77;;;14.20;1.00;;;;;;5007950;28;20791;-73
2023/05/24 02:23:42;;;;;;;9.77;4.17;;;14.20;1.00;;;;;;5009621;28;20183;-73
2023/05/24 02:26:10;;;;;;;9.83;4.33;;;14.20;1.00;;;;;;5008455;28;20284;-73
2023/05/24 02:28:36;;;;;;;13.60;4.23;;;14.20;1.00;;;;;;5007808;28;20217;-73
2023/05/24 02:31:01;;;;;;;10.37;4.70;;;14.20;1.00;;;;;;5008206;28;20804;-73
2023/05/24 02:33:28;;;;;;;9.30;4.70;;;14.20;1.00;;;;;;5007714;28;20444;-73
2023/05/24 02:35:55;;;;;;;12.50;4.67;;;14.10;1.00;;;;;;5009341;28;20178;-73
2023/05/24 02:38:20;;;;;;;7.90;4.00;;;14.00;1.00;;;;;;5008587;28;20523;-73
2023/05/24 02:40:46;;;;;;;11.47;4.10;;;14.00;1.00;;;;;;5007977;28;20449;-73
2023/05/24 02:43:11;;;;;;;8.50;4.50;;;13.90;1.00;;;;;;5008393;28;20186;-73
2023/05/24 02:45:37;;;;;;;9.30;4.00;;;13.80;1.00;;;;;;5007338;28;20300;-73
2023/05/24 02:48:02;;;;;;;10.47;4.57;;;13.80;1.00;;;;;;5008250;28;20204;-73
2023/05/24 02:50:28;;;;;;;9.50;4.20;;;13.70;1.00;;;;;;5009147;28;20612;-73
2023/05/24 02:52:53;;;;;;;12.13;5.00;;;13.70;1.00;;;;;;5007363;28;20182;-73
2023/05/24 02:55:19;;;;;;;9.90;4.57;;;13.70;1.00;;;;;;5008895;28;20261;-74
2023/05/24 02:57:46;;;;;;;16.63;4.70;;;13.70;1.00;;;;;;5006775;28;20301;-74
2023/05/24 03:00:13;;;;;;;16.20;4.37;;;13.60;1.00;;;;;;5007883;28;20234;-73
2023/05/24 03:02:39;;;;;;;9.43;4.20;;;13.50;1.00;;;;;;5008726;28;20445;-73
2023/05/24 03:05:06;;;;;;;9.87;4.17;;;13.50;1.00;;;;;;5007068;28;20445;-73
2023/05/24 03:07:31;;;;;;;10.70;4.17;;;13.40;1.00;;;;;;5007946;28;20483;-74
2023/05/24 03:09:57;;;;;;;7.30;4.07;;;13.40;1.00;;;;;;5006519;28;20870;-74
2023/05/24 03:12:22;;;;;;;9.70;4.10;;;13.50;1.00;;;;;;5005176;28;20190;-73
2023/05/24 03:14:48;;;;;;;15.73;4.10;;;13.50;1.00;;;;;;5008441;28;20186;-74
2023/05/24 03:17:13;;;;;;;10.47;4.50;;;13.40;1.00;;;;;;5007305;28;20505;-73
2023/05/24 03:19:39;;;;;;;13.47;4.50;;;13.40;1.00;;;;;;5008715;28;20202;-74
2023/05/24 03:22:05;;;;;;;11.83;4.40;;;13.50;1.00;;;;;;5007502;28;20178;-73
2023/05/24 03:24:32;;;;;;;9.73;4.20;;;13.40;1.00;;;;;;5007495;28;20680;-73
2023/05/24 03:26:58;;;;;;;12.50;4.70;;;13.40;1.00;;;;;;5008508;28;20509;-74
2023/05/24 03:29:23;;;;;;;10.67;4.10;;;13.50;1.00;;;;;;5004201;28;22458;-74
2023/05/24 03:31:49;;;;;;;10.73;4.20;;;14.00;1.00;;;;;;5006838;28;20345;-74
2023/05/24 03:34:14;;;;;;;16.40;4.37;;;13.50;1.00;;;;;;5007912;28;20183;-73
2023/05/24 03:36:40;;;;;;;14.23;4.40;;;13.40;1.00;;;;;;5007317;28;20256;-73
2023/05/24 03:39:06;;;;;;;8.63;4.33;;;13.30;1.00;;;;;;5008740;28;20581;-73
2023/05/24 03:41:32;;;;;;;7.50;3.90;;;13.30;1.00;;;;;;5001988;28;20499;-73
2023/05/24 03:43:58;;;;;;;11.87;3.47;;;13.30;1.00;;;;;;5005200;28;20568;-73
2023/05/24 03:46:24;;;;;;;6.23;3.90;;;13.30;1.00;;;;;;5004104;28;20205;-73
2023/05/24 03:48:49;;;;;;;10.90;4.17;;;13.30;1.00;;;;;;5002647;28;20465;-73
2023/05/24 03:51:15;;;;;;;11.73;4.13;;;13.40;1.00;;;;;;5006014;28;20187;-73
2023/05/24 03:53:40;;;;;;;8.90;3.80;;;13.40;1.00;;;;;;5006165;28;20189;-73
2023/05/24 03:56:06;;;;;;;12.57;4.10;;;13.40;1.00;;;;;;5004438;28;20254;-73
2023/05/24 03:58:31;;;;;;;13.47;4.87;;;13.40;1.00;;;;;;5004021;28;20182;-73
2023/05/24 04:00:57;;;;;;;7.60;3.63;;;13.40;1.00;;;;;;5005432;28;20199;-73
2023/05/24 04:03:24;;;;;;;7.83;3.60;;;13.40;1.00;;;;;;5004086;28;20190;-74
2023/05/24 04:05:50;;;;;;;8.20;3.80;;;13.40;1.00;;;;;;5007022;28;20241;-73
2023/05/24 04:08:16;;;;;;;13.73;4.20;;;13.40;1.00;;;;;;5005412;28;20983;-73
2023/05/24 04:10:41;;;;;;;12.67;4.80;;;13.40;1.00;;;;;;5006087;28;20201;-73
2023/05/24 04:13:07;;;;;;;9.53;4.10;;;13.40;1.00;;;;;;5005535;28;20252;-73
2023/05/24 04:15:33;;;;;;;11.03;3.80;;;13.40;1.00;;;;;;5006644;28;20182;-73
2023/05/24 04:17:59;;;;;;;11.60;4.10;;;13.40;1.00;;;;;;5007559;28;20237;-73
2023/05/24 04:20:26;;;;;;;11.00;4.53;;;13.40;1.00;;;;;;5006256;28;20212;-73
2023/05/24 04:22:52;;;;;;;11.00;4.00;;;13.30;1.00;;;;;;5007169;28;20441;-73
2023/05/24 04:25:18;;;;;;;11.53;3.97;;;13.40;1.00;;;;;;5006065;28;20465;-73
2023/05/24 04:27:43;;;;;;;9.40;3.87;;;13.40;1.00;;;;;;5004897;28;20508;-73
2023/05/24 04:30:10;;;;;;;11.33;3.57;;;13.40;1.00;;;;;;5006738;28;20238;-73
2023/05/24 04:32:36;;;;;;;10.87;5.00;;;13.50;1.00;;;;;;4998859;28;20180;-73
2023/05/24 04:35:03;;;;;;;9.53;3.57;;;13.50;1.00;;;;;;5006157;28;20509;-73
2023/05/24 04:37:30;;;;;;;9.03;3.57;;;13.50;1.00;;;;;;5004601;28;20309;-73
2023/05/24 04:39:56;;;;;;;10.33;4.03;;;13.50;1.00;;;;;;5006688;28;20453;-73
2023/05/24 04:42:21;;;;;;;7.03;4.17;;;13.50;1.00;;;;;;5005645;28;20429;-75
2023/05/24 04:44:47;;;;;;;16.73;4.33;;;13.10;1.00;;;;;;5006098;28;20202;-73
2023/05/24 04:47:13;;;;;;;13.00;3.80;;;;;;;;;;5006568;28;20354;-74
2023/05/24 04:49:39;;;;;;;10.20;3.60;;;13.40;1.00;;;;;;5006735;28;20234;-73
2023/05/24 04:52:06;;;;;;;13.77;4.20;;;13.30;1.00;;;;;;5007316;28;21002;-73
2023/05/24 04:54:32;;;;;;;13.10;4.37;;;13.30;1.00;;;;;;5006135;28;20237;-74
2023/05/24 04:56:57;;;;;;;12.33;4.00;;;13.70;1.00;;;;;;5006621;28;20468;-73
2023/05/24 04:59:23;;;;;;;11.73;3.97;;;13.20;1.00;;;;;;5009489;28;20283;-73
2023/05/24 05:01:49;;;;;;;14.10;3.93;;;13.20;1.00;;;;;;5007123;28;20182;-73
2023/05/24 05:04:14;;;;;;;11.50;3.87;;;13.10;1.00;;;;;;5010476;28;20460;-73
2023/05/24 05:06:43;;;;;;;9.70;3.77;;;13.20;1.00;;;;;;5010269;28;20178;-73
2023/05/24 05:09:09;;;;;;;8.67;3.70;;;13.20;1.00;;;;;;5009652;28;20393;-74
2023/05/24 05:11:35;;;;;;;15.47;4.07;;;13.10;1.00;;;;;;5008387;28;20962;-73
2023/05/24 05:14:01;;;;;;;10.10;3.83;;;13.20;1.00;;;;;;5008951;28;20644;-73
2023/05/24 05:16:27;;;;;;;16.47;4.10;;;13.20;1.00;;;;;;5010135;28;20999;-73
2023/05/24 05:18:52;;;;;;;9.63;3.50;;;13.20;1.00;;;;;;5010794;28;20209;-73
2023/05/24 05:21:18;;;;;;;11.20;3.77;;;13.20;1.00;;;;;;5009222;28;20226;-73
2023/05/24 05:23:44;;;;;;;8.50;3.10;;;13.10;1.00;;;;;;5010367;28;20194;-73
2023/05/24 05:26:10;;;;;;;11.63;3.83;;;13.10;1.00;;;;;;5010097;28;20197;-73
2023/05/24 05:28:36;;;;;;;11.80;3.30;;;13.20;1.00;;;;;;5008643;28;20464;-73
2023/05/24 05:31:01;;;;;;;8.30;3.80;;;13.20;1.00;;;;;;5009619;28;20197;-73
2023/05/24 05:33:27;;;;;;;12.10;3.70;;;13.20;1.00;;;;;;5007241;28;20194;-73
2023/05/24 05:35:53;;;;;;;7.80;3.50;;;13.20;1.00;;;;;;5010149;28;20179;-73
2023/05/24 05:38:18;;;;;;;19.53;4.20;;;13.40;1.00;;;;;;5009139;28;20205;-72
2023/05/24 05:40:44;;;;;;;13.60;3.80;;;13.40;1.00;;;;;;5009798;28;20190;-73
2023/05/24 05:43:09;;;;;;;6.90;3.40;;;13.40;1.00;;;;;;5009476;28;20187;-73
2023/05/24 05:45:35;;;;;;;6.10;3.20;;;13.50;1.00;;;;;;5009253;28;20183;-74
2023/05/24 05:48:00;;;;;;;12.30;3.70;;;14.70;1.00;;;;;;5008599;28;20212;-73
2023/05/24 05:50:26;;;;;;;16.40;4.40;;;13.60;1.00;;;;;;5007908;28;20210;-73
2023/05/24 05:52:52;;;;;;;9.00;3.73;;;13.70;1.00;;;;;;5006249;28;20184;-74
2023/05/24 05:55:17;;;;;;;11.70;4.17;;;13.70;1.00;;;;;;5009674;28;20696;-72
2023/05/24 05:57:43;;;;;;;11.03;3.80;;;13.90;1.00;;;;;;5008061;28;20178;-73
2023/05/24 06:00:09;;;;;;;10.33;3.70;;;14.00;1.00;;;;;;5007050;28;20210;-73
2023/05/24 06:02:35;;;;;;;13.20;4.00;;;14.00;1.00;;;;;;5009217;28;20195;-73
2023/05/24 06:05:00;;;;;;;12.20;4.60;;;14.10;1.00;;;;;;5008378;28;20520;-73
2023/05/24 06:07:26;;;;;;;16.20;4.70;;;14.20;1.00;;;;;;5005437;28;20205;-74
2023/05/24 06:09:51;;;;;;;8.83;3.47;;;14.30;1.00;;;;;;5007363;28;20210;-75
2023/05/24 06:12:17;;;;;;;11.77;4.00;;;14.50;1.00;;;;;;5007708;28;20237;-73
2023/05/24 06:14:43;;;;;;;7.77;3.43;;;14.70;1.00;;;;;;5009266;28;20178;-73
2023/05/24 06:17:08;;;;;;;12.77;3.57;;;14.70;1.00;;;;;;5007560;28;20181;-73
2023/05/24 06:19:34;;;;;;;10.90;4.07;;;14.90;1.00;;;;;;5008032;28;20461;-73
2023/05/24 06:22:00;;;;;;;13.73;3.90;;;15.10;1.00;;;;;;5008749;28;20183;-73
2023/05/24 06:24:27;;;;;;;16.30;3.73;;;15.00;1.00;;;;;;5006380;28;20183;-73
2023/05/24 06:26:53;;;;;;;14.57;4.40;;;15.00;1.00;;;;;;5007646;28;20621;-73
2023/05/24 06:29:19;;;;;;;9.67;3.83;;;15.00;1.00;;;;;;5007298;28;20476;-73
2023/05/24 06:31:46;;;;;;;9.43;3.50;;;15.00;1.00;;;;;;5007080;28;20648;-72
2023/05/24 06:34:12;;;;;;;10.50;4.10;;;14.90;1.00;;;;;;5009084;28;20430;-73
2023/05/24 06:36:41;;;;;;;17.30;3.63;;;14.90;1.00;;;;;;5007736;28;20452;-73
2023/05/24 06:39:11;;;;;;;11.80;3.60;;;15.00;1.00;;;;;;5007039;28;20768;-74
2023/05/24 06:41:37;;;;;;;7.77;3.20;;;14.80;1.00;;;;;;5005878;28;20651;-77
2023/05/24 06:44:03;;;;;;;12.80;3.20;;;14.90;1.00;;;;;;5009309;28;21042;-74
2023/05/24 06:46:29;;;;;;;13.60;4.00;;;14.90;1.00;;;;;;5007053;28;20447;-73
2023/05/24 06:48:54;;;;;;;11.87;3.57;;;15.10;1.00;;;;;;5006217;28;20206;-74
2023/05/24 06:51:20;;;;;;;7.67;3.10;;;15.20;1.00;;;;;;5007853;28;20198;-73
2023/05/24 06:53:46;;;;;;;15.10;3.43;;;15.30;1.00;;;;;;5006494;28;21647;-75
2023/05/24 06:56:11;;;;;;;11.53;3.73;;;15.20;1.00;;;;;;5004656;28;20187;-74
2023/05/24 06:58:37;;;;;;;9.00;3.70;;;15.00;1.00;;;;;;5005083;28;20190;-74
2023/05/24 07:01:03;;;;;;;12.10;3.50;;;15.00;1.00;;;;;;5009328;28;20192;-73
2023/05/24 07:03:32;;;;;;;12.00;3.40;;;15.00;1.00;;;;;;5006728;28;20235;-74
2023/05/24 07:05:57;;;;;;;9.83;3.80;;;15.00;1.00;;;;;;5007830;28;20429;-74
2023/05/24 07:08:26;;;;;;;9.77;3.10;;;15.20;1.00;;;;;;5006897;28;20472;-74
2023/05/24 07:10:53;;;;;;;8.23;3.37;;;15.20;1.00;;;;;;5007343;28;20191;-74
2023/05/24 07:13:18;;;;;;;13.70;3.13;;;15.40;1.00;;;;;;5008082;28;20499;-74
2023/05/24 07:15:45;;;;;;;8.53;3.00;;;15.50;1.00;;;;;;5007935;28;20442;-74
2023/05/24 07:18:11;;;;;;;9.10;3.10;;;15.60;1.00;;;;;;5007741;28;21189;-74
2023/05/24 07:20:37;;;;;;;10.23;3.20;;;15.70;1.00;;;;;;5007599;28;20503;-73
2023/05/24 07:23:03;;;;;;;8.00;2.83;;;15.80;1.00;;;;;;5006697;28;20441;-74
2023/05/24 07:25:29;;;;;;;11.23;3.43;;;16.00;1.00;;;;;;5007696;28;20186;-74
2023/05/24 07:27:54;;;;;;;12.97;2.87;;;16.20;1.00;;;;;;5007497;28;20464;-74
2023/05/24 07:30:20;;;;;;;8.90;3.20;;;16.70;1.00;;;;;;5007949;28;20280;-73
2023/05/24 07:32:46;;;;;;;9.70;3.20;;;16.70;1.00;;;;;;5007455;28;20708;-73
2023/05/24 07:35:11;;;;;;;10.23;3.20;;;17.00;1.00;;;;;;5000407;28;20661;-74
2023/05/24 07:37:38;;;;;;;11.50;3.47;;;17.30;1.00;;;;;;5005210;28;20190;-73
2023/05/24 07:40:05;;;;;;;8.10;3.37;;;17.50;1.00;;;;;;5006750;28;20206;-71
2023/05/24 07:42:30;;;;;;;11.93;3.20;;;17.60;1.00;;;;;;5005978;28;20808;-71
2023/05/24 07:44:56;;;;;;;11.30;3.37;;;17.60;1.00;;;;;;5005925;28;20434;-71
2023/05/24 07:47:21;;;;;;;12.87;3.90;;;17.60;1.00;;;;;;5003392;28;20174;-71
2023/05/24 07:49:47;;;;;;;7.70;2.93;;;17.50;1.00;;;;;;5005231;28;20238;-72
2023/05/24 07:52:13;;;;;;;11.60;3.43;;;17.60;1.00;;;;;;5005328;28;20193;-71
2023/05/24 07:54:39;;;;;;;9.00;3.43;;;17.50;1.00;;;;;;5004168;28;20175;-71
2023/05/24 07:57:04;;;;;;;10.90;3.80;;;17.40;1.00;;;;;;5004918;28;20175;-71
2023/05/24 07:59:30;;;;;;;7.53;2.90;;;17.50;1.00;;;;;;5005495;28;20201;-72
2023/05/24 08:02:00;;;;;;;12.70;3.07;;;17.40;1.00;;;;;;5006478;28;20198;-71
2023/05/24 08:04:26;;;;;;;10.27;3.00;;;17.50;1.00;;;;;;5006661;28;20661;-71
2023/05/24 08:06:51;;;;;;;9.40;3.20;;;17.60;1.00;;;;;;5006688;28;20536;-72
2023/05/24 08:09:17;;;;;;;11.50;3.40;;;17.80;1.00;;;;;;5007357;28;20205;-71
2023/05/24 08:11:42;;;;;;;7.73;3.00;;;18.00;1.00;;;;;;5007405;28;20688;-72
2023/05/24 08:14:08;;;;;;;13.13;3.43;;;18.00;1.00;;;;;;5006283;28;20210;-72
2023/05/24 08:16:33;;;;;;;8.63;3.13;;;18.30;1.00;;;;;;5006705;28;20205;-72
2023/05/24 08:18:59;;;;;;;9.27;3.30;;;18.30;1.00;;;;;;5005972;28;20210;-73
2023/05/24 08:21:25;;;;;;;12.53;3.33;;;18.40;1.00;;;;;;5003231;28;20178;-72
2023/05/24 08:23:50;;;;;;;9.80;3.33;;;18.20;1.00;;;;;;5006017;28;20182;-72
2023/05/24 08:26:18;;;;;;;11.67;3.80;;;18.40;1.00;;;;;;5006184;28;20668;-72
2023/05/24 08:28:43;;;;;;;9.30;3.20;;;18.50;1.00;;;;;;5005548;28;21003;-72
2023/05/24 08:31:09;;;;;;;11.27;2.97;;;18.60;1.00;;;;;;5007089;28;20434;-71
2023/05/24 08:33:34;;;;;;;6.87;2.80;;;18.80;1.00;;;;;;5010491;28;20194;-72
2023/05/24 08:36:00;;;;;;;8.87;3.07;;;18.60;1.00;;;;;;5010029;28;20178;-73
2023/05/24 08:38:25;;;;;;;10.60;3.03;;;19.20;1.00;;;;;;5009287;28;20262;-71
2023/05/24 08:40:51;;;;;;;10.70;3.00;;;19.20;1.00;;;;;;5011854;28;20597;-72
2023/05/24 08:43:17;;;;;;;5.40;2.47;;;19.60;1.00;;;;;;5010549;28;20174;-73
2023/05/24 08:45:44;;;;;;;6.93;2.80;;;19.90;1.00;;;;;;5010082;28;20326;-71
2023/05/24 08:48:11;;;;;;;10.20;3.03;;;19.80;1.00;;;;;;5010782;28;20555;-73
2023/05/24 08:50:37;;;;;;;7.47;2.70;;;20.30;1.00;;;;;;5010073;28;21101;-73
2023/05/24 08:53:05;;;;;;;10.93;3.30;;;20.90;1.00;;;;;;5009463;28;20448;-72
2023/05/24 08:55:32;;;;;;;8.23;2.90;;;21.80;1.00;;;;;;5009757;28;20252;-73
2023/05/24 08:57:59;;;;;;;9.37;2.80;;;22.80;1.00;;;;;;5006915;28;20993;-73
2023/05/24 09:00:25;;;;;;;10.10;3.00;;;23.80;1.00;;;;;;5009757;28;20468;-73
2023/05/24 09:02:51;;;;;;;12.20;3.90;;;24.40;1.00;;;;;;5010496;28;20926;-72
2023/05/24 09:05:20;;;;;;;11.37;3.67;;;24.50;1.00;;;;;;5008699;28;20213;-73
2023/05/24 09:07:47;;;;;;;13.80;3.60;;;25.40;1.00;;;;;;5009338;28;20444;-73
2023/05/24 09:10:14;;;;;;;8.43;3.33;;;26.20;1.00;;;;;;5008640;28;20456;-73
2023/05/24 09:12:44;;;;;;;7.70;3.10;;;26.50;1.00;;;;;;5010542;28;20447;-72
2023/05/24 09:15:10;;;;;;;11.80;4.23;;;26.70;1.00;;;;;;5010046;28;20186;-74
2023/05/24 09:17:37;;;;;;;12.67;3.70;;;27.00;1.00;;;;;;5010297;28;20221;-73
2023/05/24 09:20:06;;;;;;;9.07;3.93;;;27.20;1.00;;;;;;5005807;28;20767;-74
2023/05/24 09:22:33;;;;;;;10.68;3.75;;;27.70;1.00;;;;;;5009680;28;20668;-73
2023/05/24 09:25:04;;;;;;;16.77;3.67;;;28.40;1.00;;;;;;5011078;28;20182;-73
2023/05/24 09:27:33;;;;;;;8.80;3.50;;;28.80;1.00;;;;;;5008649;28;20193;-74
2023/05/24 09:29:58;;;;;;;9.50;3.33;;;28.80;1.00;;;;;;5009222;28;20205;-71
2023/05/24 09:32:24;;;;;;;9.93;3.80;;;28.60;1.00;;;;;;5009863;28;20197;-72
2023/05/24 09:34:54;;;;;;;9.30;3.30;;;28.40;1.00;;;;;;5009914;28;20174;-73
2023/05/24 09:37:23;;;;;;;9.20;3.90;;;29.20;1.00;;;;;;5007630;28;20182;-74
2023/05/24 09:39:50;;;;;;;8.55;3.25;;;29.60;1.00;;;;;;5009643;28;20198;-74
2023/05/24 09:42:26;;;;;;;10.80;3.63;;;29.50;1.00;;;;;;5007514;28;20228;-74
2023/05/24 09:45:08;;;;;;;8.32;3.53;;;29.30;1.00;;;;;;5010599;28;20341;-75
2023/05/24 09:47:35;;;;;;;7.50;2.90;;;29.60;1.00;;;;;;5008894;28;20213;-73
2023/05/24 09:50:02;;;;;;;7.63;3.13;;;30.30;1.00;;;;;;5012829;28;20212;-73
2023/05/24 09:52:27;;;;;;;7.43;3.22;;;30.90;1.00;;;;;;5011001;28;20707;-73
2023/05/24 09:54:53;;;;;;;9.10;3.38;;;31.00;1.00;;;;;;5011384;28;20193;-73
2023/05/24 09:57:22;;;;;;;11.68;3.20;;;30.90;1.00;;;;;;5011440;28;20189;-72
2023/05/24 09:59:51;;;;;;;8.82;3.17;;;30.50;1.00;;;;;;5011350;28;20214;-74
2023/05/24 10:02:20;;;;;;;8.70;3.45;;;30.30;1.00;;;;;;5012057;28;20181;-74
2023/05/24 10:04:46;;;;;;;10.80;3.22;;;30.10;1.00;;;;;;5011284;28;20182;-75
2023/05/24 10:07:12;;;;;;;9.13;3.00;;;29.30;1.00;;;;;;5010954;28;20243;-75
2023/05/24 10:09:39;;;;;;;8.27;3.28;;;28.50;1.00;;;;;;5011067;28;20217;-74
2023/05/24 10:12:06;;;;;;;8.50;3.28;;;28.30;1.00;;;;;;5011024;28;20205;-74
2023/05/24 10:14:34;;;;;;;8.82;2.90;;;28.70;1.00;;;;;;5007976;28;20563;-73
2023/05/24 10:17:01;;;;;;;7.18;3.38;;;29.70;1.00;;;;;;5008248;28;20175;-75
2023/05/24 10:19:26;;;;;;;11.05;3.65;;;29.90;1.00;;;;;;5006716;28;20198;-74
2023/05/24 10:21:54;;;;;;;11.88;3.55;;;29.40;1.00;;;;;;5010367;28;20193;-74
2023/05/24 10:24:24;;;;;;;8.68;3.10;;;28.50;1.00;;;;;;5011591;28;20609;-74
2023/05/24 10:26:51;;;;;;;7.90;3.40;;;27.70;1.00;;;;;;5010134;28;20228;-74
2023/05/24 10:29:53;;;;;;;9.73;3.33;;;28.00;1.00;;;;;;5011184;28;20210;-74
2023/05/24 10:32:21;;;;;;;12.43;3.47;;;28.40;1.00;;;;;;5004193;28;20566;-74
2023/05/24 10:34:49;;;;;;;8.65;2.85;;;28.50;1.00;;;;;;5010399;28;20182;-74
2023/05/24 10:37:16;;;;;;;9.82;3.38;;;28.10;1.00;;;;;;5010795;28;20217;-75
2023/05/24 10:39:42;;;;;;;6.13;3.10;;;28.00;1.00;;;;;;5010867;28;20237;-75
2023/05/24 10:42:08;;;;;;;8.17;2.80;;;27.50;1.00;;;;;;5010332;28;20209;-74
2023/05/24 10:44:34;;;;;;;6.53;3.00;;;26.90;1.00;;;;;;5010355;28;20205;-73
2023/05/24 10:47:13;;;;;;;11.60;3.63;;;25.80;1.00;;;;;;5009933;28;20240;-73
2023/05/24 10:49:51;;;;;;;8.80;3.30;;;24.60;1.00;;;;;;5010183;28;20241;-74
2023/05/24 10:52:16;;;;;;;9.50;3.60;;;24.10;1.00;;;;;;5010107;28;20454;-74
2023/05/24 10:55:06;;;;;;;10.80;3.13;;;25.90;1.00;;;;;;5009000;28;20506;-73
2023/05/24 10:57:32;;;;;;;9.00;3.27;;;27.90;1.00;;;;;;5010047;28;20239;-74
2023/05/24 11:00:27;;;;;;;16.60;4.20;;;28.70;1.00;;;;;;5007948;28;20595;-76
2023/05/24 11:03:09;;;;;;;8.00;3.37;;;29.70;1.00;;;;;;5006499;28;20580;-75
2023/05/24 11:05:50;;;;;;;9.40;3.28;;;30.20;1.00;;;;;;5005238;28;20186;-75
2023/05/24 11:08:23;;;;;;;11.48;3.22;;;30.90;1.00;;;;;;5009193;28;20214;-76
2023/05/24 11:10:49;;;;;;;9.25;3.35;;;31.10;1.00;;;;;;5008391;28;20703;-74
2023/05/24 11:13:17;;;;;;;10.88;3.55;;;31.20;1.00;;;;;;5006628;28;20265;-75
2023/05/24 11:15:50;;;;;;;8.43;3.30;;;31.20;1.00;;;;;;5008220;28;20206;-75
2023/05/24 11:18:16;;;;;;;6.30;3.38;;;31.00;1.00;;;;;;5007425;28;20254;-75
2023/05/24 11:20:46;;;;;;;8.43;3.33;;;31.10;1.00;;;;;;5008982;28;20205;-73
2023/05/24 11:23:14;;;;;;;8.80;3.47;;;31.20;1.00;;;;;;5007017;28;20699;-73
2023/05/24 11:25:40;;;;;;;6.35;3.22;;;31.60;1.00;;;;;;5007977;28;20193;-74
2023/05/24 11:28:08;;;;;;;9.95;3.65;;;31.50;1.00;;;;;;5007472;28;20219;-73
2023/05/24 11:30:41;;;;;;;8.35;3.70;;;31.80;1.00;;;;;;5005508;28;20198;-73
2023/05/24 11:33:23;;;;;;;10.57;3.55;;;32.60;1.00;;;;;;5002752;28;20193;-73
2023/05/24 11:35:53;;;;;;;12.95;3.63;;;33.10;1.00;;;;;;5008188;28;20575;-73
2023/05/24 11:38:20;;;;;;;7.97;3.72;;;32.90;1.00;;;;;;5003377;28;20537;-74
2023/05/24 11:40:48;;;;;;;11.10;3.45;;;33.00;1.00;;;;;;5006161;28;20186;-75
2023/05/24 11:43:18;;;;;;;8.07;3.42;;;33.20;1.00;;;;;;5007826;28;20190;-74
2023/05/24 11:45:47;;;;;;;11.90;3.53;;;33.70;1.00;;;;;;5006713;28;20601;-75
2023/05/24 11:48:14;;;;;;;10.70;3.35;;;33.20;1.00;;;;;;5007099;28;20260;-73
2023/05/24 11:50:44;;;;;;;9.07;3.58;;;33.10;1.00;;;;;;5007957;28;20197;-74
2023/05/24 11:53:14;;;;;;;8.63;3.10;;;33.20;1.00;;;;;;5003665;28;20696;-73
2023/05/24 11:55:41;;;;;;;10.38;4.15;;;33.10;1.00;;;;;;5006387;28;20722;-73
2023/05/24 11:58:19;;;;;;;7.40;3.15;;;32.90;1.00;;;;;;5007392;28;20236;-74
2023/05/24 12:00:46;;;;;;;12.00;3.50;;;33.30;1.00;;;;;;5004538;28;20182;-73
2023/05/24 12:03:11;;;;;;;6.38;3.00;;;33.50;1.00;;;;;;5005760;28;20668;-73
2023/05/24 12:05:37;;;;;;;7.32;3.03;;;34.10;1.00;;;;;;5006481;28;20197;-72
2023/05/24 12:08:08;;;;;;;9.50;3.45;;;34.20;1.00;;;;;;5001108;28;20206;-73
2023/05/24 12:10:38;;;;;;;9.60;3.22;;;33.70;1.00;;;;;;5006390;28;20576;-73
2023/05/24 12:13:08;;;;;;;8.98;3.30;;;32.80;1.00;;;;;;5000783;28;20251;-73
2023/05/24 12:15:34;;;;;;;12.25;3.50;;;31.90;1.00;;;;;;5003083;28;20272;-73
2023/05/24 12:18:00;;;;;;;7.63;3.38;;;31.70;1.00;;;;;;5006368;28;20280;-73
2023/05/24 12:20:28;;;;;;;9.32;3.17;;;32.60;1.00;;;;;;5007538;28;20650;-74
2023/05/24 12:22:55;;;;;;;5.70;3.28;;;32.00;1.00;;;;;;5005832;28;20201;-73
2023/05/24 12:25:22;;;;;;;6.78;3.38;;;32.80;1.00;;;;;;5007202;28;20186;-72
2023/05/24 12:27:55;;;;;;;5.38;2.92;;;33.20;1.00;;;;;;5002575;28;20231;-73
2023/05/24 12:30:27;;;;;;;8.38;3.30;;;34.10;1.00;;;;;;5005968;28;20288;-74
2023/05/24 12:32:53;;;;;;;6.65;3.60;;;34.00;1.00;;;;;;5003267;28;20182;-73
2023/05/24 12:35:20;;;;;;;7.57;3.08;;;33.80;1.00;;;;;;5002387;28;20268;-74
2023/05/24 12:37:47;;;;;;;12.05;3.30;;;34.40;1.00;;;;;;5007011;28;20534;-74
2023/05/24 12:40:20;;;;;;;11.52;3.58;;;34.10;1.00;;;;;;5007340;28;20201;-73
2023/05/24 12:43:05;;;;;;;6.00;3.15;;;33.40;1.00;;;;;;5006338;28;20526;-74
2023/05/24 12:45:31;;;;;;;7.35;3.45;;;34.00;1.00;;;;;;4999171;28;20197;-73
2023/05/24 12:47:58;;;;;;;6.90;3.10;;;34.30;1.00;;;;;;5006351;28;20193;-74
2023/05/24 12:50:25;;;;;;;8.57;3.65;;;34.80;1.00;;;;;;5003357;28;20672;-74
2023/05/24 12:52:52;;;;;;;6.85;2.90;;;34.80;1.00;;;;;;5005281;28;20182;-74
2023/05/24 12:55:19;;;;;;;9.88;3.28;;;34.90;1.00;;;;;;5005956;28;20216;-73